Time;durP1;ratioP1;P1;durP2;ratioP2;P2;SDS_P1;SDS_P2;PMS_P1;PMS_P2;Temp;Humidity;BMP_temperature;BMP_pressure;BME280_temperature;BME280_humidity;BME280_pressure;Samples;Min_cycle;Max_cycle;Signal;HPM_P1;HPM_P2
2021/06/12 00:00:21;;;;;;;13.20;12.40;;;19.30;99.90;;;;;;5015117;28;20201;-65
2021/06/12 00:02:47;;;;;;;13.67;12.77;;;19.30;99.90;;;;;;5015291;28;20321;-66
2021/06/12 00:05:14;;;;;;;15.53;14.17;;;19.30;99.90;;;;;;5015090;28;20469;-66
2021/06/12 00:07:40;;;;;;;14.87;13.77;;;19.40;99.90;;;;;;5015183;28;20797;-66
2021/06/12 00:10:09;;;;;;;14.23;13.13;;;19.30;99.90;;;;;;5014714;28;20422;-66
2021/06/12 00:12:35;;;;;;;15.33;14.23;;;19.30;99.90;;;;;;5015113;28;20213;-66
2021/06/12 00:15:01;;;;;;;15.10;14.10;;;19.20;99.90;;;;;;5014964;28;20527;-66
2021/06/12 00:17:26;;;;;;;16.20;14.90;;;19.10;99.90;;;;;;5014951;28;20422;-66
2021/06/12 00:19:52;;;;;;;15.20;13.90;;;19.10;99.90;;;;;;5014690;28;20549;-65
2021/06/12 00:22:18;;;;;;;13.20;12.10;;;19.00;99.90;;;;;;5014786;28;20555;-65
2021/06/12 00:24:43;;;;;;;15.20;14.10;;;19.00;99.90;;;;;;5014631;28;20253;-66
2021/06/12 00:27:10;;;;;;;15.13;13.97;;;18.90;99.90;;;;;;5014830;28;20458;-66
2021/06/12 00:29:36;;;;;;;16.63;15.53;;;18.90;99.90;;;;;;5014497;28;20194;-65
2021/06/12 00:32:01;;;;;;;14.20;13.20;;;18.80;99.90;;;;;;5013472;28;20426;-65
2021/06/12 00:34:27;;;;;;;16.40;14.93;;;18.80;99.90;;;;;;5014526;28;20679;-66
2021/06/12 00:36:52;;;;;;;15.77;14.33;;;18.80;99.90;;;;;;5014572;28;20171;-66
2021/06/12 00:39:18;;;;;;;14.77;13.77;;;18.80;99.90;;;;;;5014255;28;20581;-66
2021/06/12 00:41:44;;;;;;;15.37;14.30;;;18.70;99.90;;;;;;5014681;28;20234;-66
2021/06/12 00:44:10;;;;;;;14.70;13.70;;;18.70;99.90;;;;;;5014440;28;20924;-65
2021/06/12 00:46:36;;;;;;;16.27;14.97;;;18.80;99.90;;;;;;5014451;28;20456;-66
2021/06/12 00:49:02;;;;;;;15.87;14.67;;;18.80;99.90;;;;;;5014198;28;20171;-66
2021/06/12 00:51:28;;;;;;;16.63;15.10;;;18.80;99.90;;;;;;5014192;28;20521;-65
2021/06/12 00:53:53;;;;;;;16.00;14.83;;;18.80;99.90;;;;;;5014064;28;20236;-66
2021/06/12 00:56:20;;;;;;;15.37;14.27;;;18.80;99.90;;;;;;5014308;28;20456;-66
2021/06/12 00:58:48;;;;;;;17.80;16.23;;;18.90;99.90;;;;;;5014255;28;20178;-66
2021/06/12 01:01:16;;;;;;;16.00;14.70;;;18.70;99.90;;;;;;5014085;28;20467;-66
2021/06/12 01:03:45;;;;;;;15.80;14.60;;;18.50;99.90;;;;;;5013984;28;20472;-65
2021/06/12 01:06:11;;;;;;;15.77;14.67;;;18.50;99.90;;;;;;5013985;28;20907;-66
2021/06/12 01:08:38;;;;;;;15.00;13.87;;;18.40;99.90;;;;;;5013223;28;20484;-66
2021/06/12 01:11:05;;;;;;;16.00;14.77;;;18.30;99.90;;;;;;5014029;28;20789;-66
2021/06/12 01:13:38;;;;;;;16.30;15.20;;;18.30;99.90;;;;;;5013939;28;21014;-65
2021/06/12 01:16:28;;;;;;;16.13;14.73;;;18.30;99.90;;;;;;5013954;28;21004;-66
2021/06/12 01:18:55;;;;;;;15.47;14.17;;;18.30;99.90;;;;;;5013496;28;20414;-65
2021/06/12 01:21:44;;;;;;;16.27;15.07;;;18.30;99.90;;;;;;5013973;28;21020;-66
2021/06/12 01:24:34;;;;;;;15.17;14.00;;;18.40;99.90;;;;;;5013198;28;20449;-65
2021/06/12 01:27:15;;;;;;;17.20;15.70;;;18.40;99.90;;;;;;5013617;28;20954;-67
2021/06/12 01:30:01;;;;;;;16.70;15.00;;;18.30;99.90;;;;;;5013398;28;20907;-66
2021/06/12 01:32:28;;;;;;;14.50;13.50;;;18.30;99.90;;;;;;5012424;28;20516;-66
2021/06/12 01:34:57;;;;;;;15.57;14.47;;;18.30;99.90;;;;;;5013383;28;20444;-66
2021/06/12 01:37:25;;;;;;;16.70;15.60;;;18.30;99.90;;;;;;5013391;28;20429;-66
2021/06/12 01:39:51;;;;;;;16.60;15.20;;;18.20;99.90;;;;;;5013105;28;20565;-66
2021/06/12 01:42:19;;;;;;;15.60;14.47;;;18.10;99.90;;;;;;5013305;28;20461;-65
2021/06/12 01:44:46;;;;;;;17.13;15.63;;;18.10;99.90;;;;;;5013268;28;20926;-66
2021/06/12 01:47:13;;;;;;;15.67;14.40;;;18.00;99.90;;;;;;5013293;28;20485;-65
2021/06/12 01:49:40;;;;;;;15.53;14.30;;;18.10;99.90;;;;;;5012946;28;20414;-65
2021/06/12 01:52:06;;;;;;;17.90;16.50;;;18.00;99.90;;;;;;5012917;28;20490;-66
2021/06/12 01:54:34;;;;;;;16.00;14.90;;;18.00;99.90;;;;;;5013120;28;20445;-65
2021/06/12 01:57:01;;;;;;;15.43;14.33;;;18.00;99.90;;;;;;5013431;28;20454;-66
2021/06/12 01:59:28;;;;;;;17.43;16.03;;;18.00;99.90;;;;;;5012909;28;21046;-65
2021/06/12 02:01:58;;;;;;;15.50;14.50;;;18.00;99.90;;;;;;5012926;28;21011;-66
2021/06/12 02:04:24;;;;;;;17.23;15.97;;;18.00;99.90;;;;;;5012870;28;20453;-65
2021/06/12 02:06:51;;;;;;;16.77;15.37;;;18.00;99.90;;;;;;5012803;28;20422;-66
2021/06/12 02:09:18;;;;;;;15.73;14.60;;;18.00;99.90;;;;;;5012879;28;20922;-66
2021/06/12 02:11:45;;;;;;;16.33;14.70;;;18.10;99.90;;;;;;5012945;28;20417;-65
2021/06/12 02:14:12;;;;;;;16.67;15.47;;;18.10;99.90;;;;;;5012751;28;20465;-66
2021/06/12 02:16:38;;;;;;;16.23;15.00;;;18.00;99.90;;;;;;5012823;28;20938;-66
2021/06/12 02:19:05;;;;;;;16.63;15.30;;;18.00;99.90;;;;;;5012891;28;20422;-66
2021/06/12 02:21:35;;;;;;;16.60;15.30;;;17.90;99.90;;;;;;5011743;28;20974;-68
2021/06/12 02:24:01;;;;;;;15.37;14.23;;;17.80;99.90;;;;;;5012600;28;20512;-66
2021/06/12 02:26:30;;;;;;;16.53;15.23;;;17.80;99.90;;;;;;5012719;28;20902;-66
2021/06/12 02:28:57;;;;;;;16.63;15.43;;;17.80;99.90;;;;;;5012374;28;20429;-66
2021/06/12 02:31:35;;;;;;;15.57;14.50;;;17.70;99.90;;;;;;5012564;28;20483;-65
2021/06/12 02:34:01;;;;;;;16.80;15.43;;;17.70;99.90;;;;;;5012431;28;20532;-66
2021/06/12 02:36:26;;;;;;;15.77;14.70;;;17.60;99.90;;;;;;5012390;28;20504;-65
2021/06/12 02:38:52;;;;;;;16.80;15.60;;;17.80;99.90;;;;;;5012126;28;20175;-65
2021/06/12 02:41:18;;;;;;;16.43;15.23;;;17.70;99.90;;;;;;5012438;28;20205;-65
2021/06/12 02:43:44;;;;;;;16.40;15.20;;;17.70;99.90;;;;;;5010948;28;20227;-65
2021/06/12 02:46:13;;;;;;;18.20;16.67;;;17.60;99.90;;;;;;5012310;28;20453;-65
2021/06/12 02:48:39;;;;;;;16.80;15.50;;;17.70;99.90;;;;;;5012119;28;20628;-65
2021/06/12 02:51:09;;;;;;;16.37;15.17;;;17.70;99.90;;;;;;5012288;28;20841;-65
2021/06/12 02:53:38;;;;;;;16.10;15.00;;;17.80;99.90;;;;;;5012147;28;20481;-65
2021/06/12 02:56:05;;;;;;;17.70;16.40;;;17.70;99.90;;;;;;5012313;28;20428;-65
2021/06/12 02:58:33;;;;;;;16.53;15.30;;;17.60;99.90;;;;;;5011935;28;20804;-66
2021/06/12 03:00:58;;;;;;;15.67;14.47;;;17.60;99.90;;;;;;5012051;28;20572;-65
2021/06/12 03:03:26;;;;;;;16.60;15.40;;;17.60;99.90;;;;;;5012039;28;20425;-66
2021/06/12 03:05:57;;;;;;;16.27;14.93;;;17.50;99.90;;;;;;5012151;28;20714;-66
2021/06/12 03:08:26;;;;;;;17.20;15.80;;;17.50;99.90;;;;;;5012013;28;20418;-66
2021/06/12 03:10:53;;;;;;;17.07;15.83;;;17.50;99.90;;;;;;5012015;28;20483;-65
2021/06/12 03:13:26;;;;;;;15.40;14.30;;;17.30;99.90;;;;;;5012502;28;20422;-66
2021/06/12 03:15:53;;;;;;;17.70;16.40;;;17.30;99.90;;;;;;5012347;28;20437;-66
2021/06/12 03:18:19;;;;;;;17.37;15.97;;;17.40;99.90;;;;;;5012049;28;20418;-66
2021/06/12 03:20:46;;;;;;;16.97;15.67;;;17.40;99.90;;;;;;5011742;28;20465;-65
2021/06/12 03:23:12;;;;;;;16.23;15.13;;;17.40;99.90;;;;;;5012040;28;20198;-66
2021/06/12 03:25:39;;;;;;;16.60;15.20;;;17.40;99.90;;;;;;5012036;28;20413;-66
2021/06/12 03:28:05;;;;;;;16.30;15.00;;;17.40;99.90;;;;;;5011846;28;20416;-66
2021/06/12 03:30:31;;;;;;;17.80;16.50;;;17.40;99.90;;;;;;5011702;28;20422;-66
2021/06/12 03:32:58;;;;;;;16.40;15.30;;;17.40;99.90;;;;;;5014669;28;20782;-66
2021/06/12 03:35:24;;;;;;;14.50;13.50;;;17.40;99.90;;;;;;5015650;28;20459;-65
2021/06/12 03:37:50;;;;;;;15.20;14.10;;;17.40;99.90;;;;;;5015836;28;20945;-65
2021/06/12 03:40:16;;;;;;;17.23;15.67;;;17.40;99.90;;;;;;5015333;28;20449;-65
2021/06/12 03:42:43;;;;;;;16.70;15.40;;;17.40;99.90;;;;;;5015624;28;20414;-66
2021/06/12 03:45:11;;;;;;;15.90;14.50;;;17.40;99.90;;;;;;5015540;28;21088;-65
2021/06/12 03:47:38;;;;;;;16.23;14.93;;;17.30;99.90;;;;;;5015554;28;20725;-65
2021/06/12 03:50:07;;;;;;;14.97;13.77;;;17.40;99.90;;;;;;5015114;28;20421;-65
2021/06/12 03:52:34;;;;;;;17.17;15.77;;;17.40;99.90;;;;;;5015354;28;20911;-66
2021/06/12 03:54:59;;;;;;;16.57;15.37;;;17.40;99.90;;;;;;5015258;28;20998;-65
2021/06/12 03:57:25;;;;;;;14.00;12.87;;;17.40;99.90;;;;;;5015443;28;20417;-66
2021/06/12 03:59:52;;;;;;;16.80;15.50;;;17.40;99.90;;;;;;5015038;28;20226;-65
2021/06/12 04:02:18;;;;;;;16.80;15.50;;;17.40;99.90;;;;;;5015307;28;20504;-66
2021/06/12 04:04:45;;;;;;;16.47;15.03;;;17.50;99.90;;;;;;5015041;28;20461;-65
2021/06/12 04:07:11;;;;;;;15.60;14.30;;;17.50;99.90;;;;;;5015141;28;20768;-66
2021/06/12 04:09:37;;;;;;;15.33;14.17;;;17.50;99.90;;;;;;5014757;28;20461;-65
2021/06/12 04:12:03;;;;;;;15.07;14.07;;;17.40;99.90;;;;;;5015157;28;20454;-65
2021/06/12 04:14:28;;;;;;;16.50;15.30;;;17.40;99.90;;;;;;5014992;28;20201;-65
2021/06/12 04:16:54;;;;;;;18.93;17.60;;;17.30;99.90;;;;;;5015015;28;20214;-66
2021/06/12 04:19:19;;;;;;;17.20;15.90;;;17.30;99.90;;;;;;5014560;28;20186;-66
2021/06/12 04:21:45;;;;;;;16.17;15.00;;;17.40;99.90;;;;;;5014847;28;20203;-66
2021/06/12 04:24:11;;;;;;;18.33;17.03;;;17.40;99.90;;;;;;5014746;28;20191;-66
2021/06/12 04:26:36;;;;;;;16.77;15.67;;;17.40;99.90;;;;;;5014870;28;20417;-66
2021/06/12 04:29:02;;;;;;;15.53;14.50;;;17.50;99.90;;;;;;5014498;28;20265;-66
2021/06/12 04:31:27;;;;;;;16.40;15.20;;;17.40;99.90;;;;;;5014777;28;20202;-66
2021/06/12 04:33:53;;;;;;;16.70;15.50;;;17.50;99.90;;;;;;5014609;28;20648;-66
2021/06/12 04:36:18;;;;;;;17.10;15.90;;;17.50;99.90;;;;;;5014675;28;20644;-65
2021/06/12 04:38:44;;;;;;;17.10;15.80;;;17.50;99.90;;;;;;5014321;28;20183;-65
2021/06/12 04:41:09;;;;;;;16.07;14.70;;;17.60;99.90;;;;;;5014567;28;20229;-66
2021/06/12 04:43:35;;;;;;;17.50;16.20;;;17.70;99.90;;;;;;5013849;28;20198;-65
2021/06/12 04:46:00;;;;;;;19.07;17.57;;;17.70;99.90;;;;;;5014536;28;20579;-65
2021/06/12 04:48:26;;;;;;;17.13;15.93;;;17.90;99.90;;;;;;5014179;28;20170;-66
2021/06/12 04:50:51;;;;;;;15.37;14.07;;;18.10;99.90;;;;;;5014349;28;20217;-65
2021/06/12 04:53:17;;;;;;;18.70;16.80;;;18.30;99.90;;;;;;5014118;28;20189;-66
2021/06/12 04:55:43;;;;;;;16.10;15.00;;;18.40;99.90;;;;;;5014291;28;20179;-65
2021/06/12 04:58:10;;;;;;;16.37;15.13;;;18.50;99.90;;;;;;5014250;28;20465;-66
2021/06/12 05:00:36;;;;;;;15.90;14.60;;;18.70;99.90;;;;;;5013965;28;20202;-65
2021/06/12 05:03:02;;;;;;;17.83;16.53;;;18.90;99.90;;;;;;5014209;28;20974;-66
2021/06/12 05:05:28;;;;;;;17.30;15.73;;;19.00;99.90;;;;;;5014480;28;20465;-66
2021/06/12 05:07:53;;;;;;;15.97;14.70;;;19.30;99.90;;;;;;5013990;28;21001;-65
2021/06/12 05:10:19;;;;;;;14.47;13.30;;;19.60;99.90;;;;;;5013773;28;20628;-65
2021/06/12 05:12:45;;;;;;;16.40;14.93;;;19.90;99.90;;;;;;5013200;28;20218;-66
2021/06/12 05:15:10;;;;;;;14.10;12.93;;;20.10;99.90;;;;;;5013856;28;20191;-66
2021/06/12 05:17:40;;;;;;;15.40;14.10;;;20.30;99.90;;;;;;5015332;28;20182;-66
2021/06/12 05:20:07;;;;;;;14.07;13.07;;;20.40;99.90;;;;;;5013464;28;20425;-66
2021/06/12 05:22:32;;;;;;;14.17;13.07;;;20.50;99.90;;;;;;5013661;28;20795;-66
2021/06/12 05:24:58;;;;;;;15.43;14.10;;;20.50;99.90;;;;;;5013651;28;20446;-66
2021/06/12 05:27:24;;;;;;;14.50;13.30;;;20.60;99.90;;;;;;5013749;28;20185;-65
2021/06/12 05:29:49;;;;;;;14.13;13.10;;;20.70;99.90;;;;;;5013415;28;20174;-65
2021/06/12 05:32:16;;;;;;;13.30;12.40;;;20.70;99.90;;;;;;5028809;28;20437;-66
2021/06/12 05:34:42;;;;;;;15.53;14.30;;;20.80;99.90;;;;;;5013546;28;20565;-66
2021/06/12 05:37:07;;;;;;;13.47;12.53;;;20.80;99.90;;;;;;5013887;28;20429;-66
2021/06/12 05:39:33;;;;;;;14.57;13.67;;;21.00;99.90;;;;;;5013355;28;20426;-66
2021/06/12 05:41:59;;;;;;;14.70;13.60;;;21.10;99.90;;;;;;5013424;28;20731;-66
2021/06/12 05:44:24;;;;;;;16.00;14.73;;;21.10;99.90;;;;;;5013280;28;20234;-66
2021/06/12 05:46:50;;;;;;;13.70;12.70;;;21.20;99.90;;;;;;5013320;28;20179;-66
2021/06/12 05:49:17;;;;;;;15.50;14.30;;;21.40;99.90;;;;;;5013083;28;20542;-66
2021/06/12 05:51:43;;;;;;;13.60;12.50;;;21.50;99.90;;;;;;5013035;28;20476;-66
2021/06/12 05:54:08;;;;;;;15.00;13.50;;;21.70;99.90;;;;;;5013169;28;20433;-66
2021/06/12 05:56:34;;;;;;;13.20;12.30;;;21.90;99.90;;;;;;5013162;28;20175;-66
2021/06/12 05:58:59;;;;;;;12.37;11.57;;;22.00;99.90;;;;;;5024584;28;20644;-66
2021/06/12 06:01:25;;;;;;;13.80;12.60;;;22.20;99.90;;;;;;5013154;28;20671;-66
2021/06/12 06:03:50;;;;;;;13.43;12.33;;;22.30;99.90;;;;;;5029686;28;20225;-66
2021/06/12 06:06:16;;;;;;;12.43;11.63;;;22.50;99.90;;;;;;5020177;28;20170;-66
2021/06/12 06:08:41;;;;;;;14.43;13.00;;;22.60;99.90;;;;;;5032720;28;20257;-65
2021/06/12 06:11:07;;;;;;;13.97;12.83;;;22.90;99.90;;;;;;5022672;28;20178;-66
2021/06/12 06:13:41;;;;;;;12.70;11.50;;;23.10;99.90;;;;;;5018274;28;20202;-66
2021/06/12 06:16:06;;;;;;;12.17;11.30;;;23.30;99.90;;;;;;5030867;28;20187;-66
2021/06/12 06:18:32;;;;;;;12.73;11.93;;;23.50;99.90;;;;;;5018772;28;20992;-66
2021/06/12 06:20:58;;;;;;;11.70;10.80;;;23.90;99.90;;;;;;5015919;28;20205;-66
2021/06/12 06:23:24;;;;;;;12.00;11.20;;;24.10;99.90;;;;;;5022255;28;20430;-66
2021/06/12 06:25:50;;;;;;;12.00;11.20;;;24.30;99.90;;;;;;5012721;28;20426;-66
2021/06/12 06:28:16;;;;;;;12.57;11.60;;;24.30;99.90;;;;;;5029172;28;20433;-66
2021/06/12 06:30:42;;;;;;;11.40;10.70;;;24.50;99.90;;;;;;5031814;28;20182;-67
2021/06/12 06:33:07;;;;;;;11.33;10.43;;;24.60;99.90;;;;;;5032304;28;20205;-67
2021/06/12 06:35:33;;;;;;;12.03;11.13;;;24.60;99.90;;;;;;5032050;28;20217;-66
2021/06/12 06:37:59;;;;;;;11.77;10.87;;;24.70;99.90;;;;;;5032308;28;20228;-66
2021/06/12 06:40:25;;;;;;;11.00;10.10;;;24.70;99.90;;;;;;5032024;28;20930;-66
2021/06/12 06:42:51;;;;;;;10.83;10.13;;;24.80;99.90;;;;;;5032169;28;20184;-66
2021/06/12 06:45:16;;;;;;;11.27;10.40;;;24.90;99.90;;;;;;5031870;28;20981;-66
2021/06/12 06:47:42;;;;;;;12.30;11.20;;;25.00;99.90;;;;;;5032140;28;20174;-66
2021/06/12 06:50:08;;;;;;;11.40;10.60;;;25.00;99.90;;;;;;5031676;28;20846;-66
2021/06/12 06:52:34;;;;;;;10.37;9.57;;;25.20;99.90;;;;;;5022451;28;20175;-66
2021/06/12 06:54:59;;;;;;;8.00;7.40;;;25.50;99.90;;;;;;5013299;28;20459;-66
2021/06/12 06:57:25;;;;;;;8.10;7.50;;;25.70;99.90;;;;;;4997895;28;20231;-65
2021/06/12 06:59:51;;;;;;;8.80;8.30;;;25.70;99.90;;;;;;4992239;28;20637;-65
2021/06/12 07:02:16;;;;;;;8.47;7.73;;;26.00;99.90;;;;;;4992605;28;20624;-66
2021/06/12 07:04:42;;;;;;;8.10;7.63;;;26.10;99.90;;;;;;4996412;28;20211;-67
2021/06/12 07:07:08;;;;;;;8.43;7.83;;;26.40;99.90;;;;;;5015183;28;20175;-65
2021/06/12 07:09:35;;;;;;;8.90;8.30;;;26.40;99.90;;;;;;5018412;28;20187;-65
2021/06/12 07:12:01;;;;;;;9.10;8.30;;;26.50;99.90;;;;;;5018571;28;20174;-65
2021/06/12 07:14:28;;;;;;;8.23;7.63;;;26.50;99.90;;;;;;5018468;28;20969;-66
2021/06/12 07:16:54;;;;;;;8.70;8.00;;;26.60;99.90;;;;;;5018576;28;20922;-66
2021/06/12 07:19:22;;;;;;;8.30;7.70;;;26.70;99.90;;;;;;5018129;28;20461;-66
2021/06/12 07:21:48;;;;;;;7.93;7.43;;;27.20;99.90;;;;;;5018349;28;20272;-66
2021/06/12 07:24:14;;;;;;;7.27;6.77;;;27.60;99.90;;;;;;5018522;28;20437;-66
2021/06/12 07:26:42;;;;;;;7.10;6.60;;;27.70;99.90;;;;;;5018644;28;20483;-65
2021/06/12 07:29:08;;;;;;;6.77;6.20;;;27.60;99.90;;;;;;5016777;28;20261;-66
2021/06/12 07:31:34;;;;;;;6.93;6.37;;;27.50;99.90;;;;;;5021242;28;20885;-65
2021/06/12 07:33:59;;;;;;;7.00;6.50;;;27.50;99.90;;;;;;5000972;28;20627;-65
2021/06/12 07:36:27;;;;;;;7.37;6.40;;;27.80;99.90;;;;;;4998932;28;20582;-66
2021/06/12 07:38:52;;;;;;;7.20;6.70;;;28.00;99.90;;;;;;5034143;28;20174;-65
2021/06/12 07:41:18;;;;;;;7.50;7.00;;;28.30;99.90;;;;;;5038124;28;20463;-65
2021/06/12 07:43:43;;;;;;;6.73;6.30;;;28.50;99.90;;;;;;5036579;28;20612;-66
2021/06/12 07:46:09;;;;;;;6.70;6.20;;;28.60;99.90;;;;;;5038079;28;20350;-65
2021/06/12 07:48:34;;;;;;;6.40;6.00;;;28.80;99.90;;;;;;5037715;28;20182;-62
2021/06/12 07:51:00;;;;;;;5.90;5.50;;;28.90;99.90;;;;;;5020545;28;20175;-62
2021/06/12 07:53:26;;;;;;;6.13;5.63;;;29.10;99.90;;;;;;5001743;28;20211;-62
2021/06/12 07:55:51;;;;;;;5.43;5.13;;;29.50;99.90;;;;;;4998644;28;20631;-62
2021/06/12 07:58:17;;;;;;;6.63;5.80;;;29.60;99.80;;;;;;4998560;28;20573;-62
2021/06/12 08:00:42;;;;;;;5.97;5.47;;;29.50;99.90;;;;;;4998231;28;20199;-62
2021/06/12 08:03:07;;;;;;;5.60;5.20;;;29.90;98.30;;;;;;5004122;28;20176;-62
2021/06/12 08:05:33;;;;;;;6.10;5.70;;;29.80;97.00;;;;;;5011838;28;20307;-62
2021/06/12 08:07:59;;;;;;;6.07;5.67;;;29.70;96.40;;;;;;5017670;28;20522;-63
2021/06/12 08:10:25;;;;;;;4.77;4.47;;;29.50;95.80;;;;;;5017221;28;20166;-62
2021/06/12 08:12:51;;;;;;;5.40;5.10;;;29.50;96.60;;;;;;5017983;28;20640;-62
2021/06/12 08:15:16;;;;;;;6.10;5.60;;;29.60;96.20;;;;;;5017699;28;20452;-62
2021/06/12 08:17:43;;;;;;;6.13;5.63;;;29.70;96.60;;;;;;5016917;28;20199;-63
2021/06/12 08:20:09;;;;;;;5.70;5.37;;;29.80;96.00;;;;;;5013940;28;20535;-62
2021/06/12 08:22:35;;;;;;;4.77;4.47;;;29.70;96.00;;;;;;5014724;28;20511;-62
2021/06/12 08:25:01;;;;;;;5.50;5.10;;;29.80;94.70;;;;;;5014896;28;20942;-63
2021/06/12 08:27:26;;;;;;;4.63;4.23;;;29.40;94.30;;;;;;5014883;28;20338;-63
2021/06/12 08:29:52;;;;;;;5.87;5.47;;;29.60;94.40;;;;;;5014550;28;20636;-62
2021/06/12 08:32:17;;;;;;;5.43;4.83;;;30.00;94.20;;;;;;5014753;28;20270;-63
2021/06/12 08:34:43;;;;;;;6.50;5.67;;;30.40;93.60;;;;;;5014699;28;20189;-63
2021/06/12 08:37:09;;;;;;;5.03;4.63;;;31.00;93.20;;;;;;5014683;28;20197;-64
2021/06/12 08:39:35;;;;;;;5.30;4.90;;;30.90;91.60;;;;;;5014360;28;20233;-62
2021/06/12 08:42:01;;;;;;;5.60;5.10;;;30.60;91.20;;;;;;5014542;28;20457;-62
2021/06/12 08:44:27;;;;;;;4.97;4.63;;;30.20;91.80;;;;;;5013697;28;20214;-62
2021/06/12 08:46:53;;;;;;;6.27;5.67;;;29.80;92.30;;;;;;5014230;28;20233;-63
2021/06/12 08:49:19;;;;;;;5.73;5.23;;;29.80;91.50;;;;;;5014222;28;20426;-63
2021/06/12 08:51:46;;;;;;;5.87;5.03;;;30.10;91.00;;;;;;5030264;28;20421;-63
2021/06/12 08:54:16;;;;;;;6.70;6.20;;;30.20;92.00;;;;;;5034112;28;20448;-65
2021/06/12 08:56:42;;;;;;;6.30;5.80;;;30.50;93.70;;;;;;5033987;28;20516;-66
2021/06/12 08:59:08;;;;;;;7.67;7.17;;;31.10;93.40;;;;;;5033653;28;20483;-63
2021/06/12 09:01:34;;;;;;;6.67;6.27;;;31.20;93.30;;;;;;5033860;28;20460;-65
2021/06/12 09:03:59;;;;;;;7.73;7.03;;;31.20;93.40;;;;;;5016540;28;21099;-65
2021/06/12 09:06:25;;;;;;;8.57;6.43;;;30.90;94.10;;;;;;5014140;28;20217;-67
2021/06/12 09:08:50;;;;;;;7.00;6.43;;;30.40;94.10;;;;;;5013740;28;20175;-65
2021/06/12 09:11:19;;;;;;;8.00;7.50;;;30.10;95.50;;;;;;5014044;28;20171;-69
2021/06/12 09:13:53;;;;;;;6.80;6.37;;;29.70;96.00;;;;;;5013758;28;20286;-69
2021/06/12 09:16:28;;;;;;;7.77;7.00;;;29.00;97.30;;;;;;5013937;28;20417;-69
2021/06/12 09:18:56;;;;;;;7.40;6.93;;;28.50;98.40;;;;;;5014749;28;20461;-69
2021/06/12 09:21:29;;;;;;;7.50;6.90;;;28.20;98.90;;;;;;5033480;28;20455;-69
2021/06/12 09:23:57;;;;;;;6.53;6.13;;;28.10;99.80;;;;;;5033528;28;20448;-67
2021/06/12 09:26:50;;;;;;;5.73;5.23;;;28.20;99.40;;;;;;5033418;28;20918;-67
2021/06/12 09:29:18;;;;;;;4.23;3.93;;;28.40;99.20;;;;;;5032830;28;20417;-67
2021/06/12 09:31:54;;;;;;;3.53;3.33;;;28.50;97.90;;;;;;5033338;28;20425;-68
2021/06/12 09:34:23;;;;;;;6.50;4.53;;;28.60;96.90;;;;;;5033364;28;20529;-67
2021/06/12 09:36:50;;;;;;;7.50;3.87;;;28.60;97.10;;;;;;5033147;28;20412;-66
2021/06/12 09:39:21;;;;;;;4.43;3.37;;;28.70;96.90;;;;;;5026005;28;20433;-69
2021/06/12 09:41:57;;;;;;;3.80;3.50;;;29.10;96.00;;;;;;5013295;28;20771;-67
2021/06/12 09:44:29;;;;;;;4.10;3.80;;;29.30;94.70;;;;;;5013301;28;20433;-69
2021/06/12 09:46:55;;;;;;;7.27;3.93;;;29.10;95.10;;;;;;5013304;28;20441;-65
2021/06/12 09:49:39;;;;;;;4.90;3.57;;;29.10;95.50;;;;;;5014781;28;20482;-66
2021/06/12 09:52:10;;;;;;;5.13;4.10;;;29.50;95.40;;;;;;5021713;28;20434;-63
2021/06/12 09:54:38;;;;;;;4.80;3.90;;;29.80;94.60;;;;;;5013257;28;20561;-64
2021/06/12 09:57:05;;;;;;;4.90;3.77;;;30.00;94.10;;;;;;5013143;28;20421;-64
2021/06/12 09:59:43;;;;;;;6.40;3.37;;;30.40;93.70;;;;;;5013189;28;20453;-64
2021/06/12 10:02:09;;;;;;;5.60;3.93;;;30.10;92.70;;;;;;5013134;28;20461;-65
2021/06/12 10:04:35;;;;;;;4.80;4.50;;;30.10;93.20;;;;;;5017123;28;20489;-63
2021/06/12 10:07:00;;;;;;;3.67;3.37;;;30.40;92.80;;;;;;5006816;28;20504;-63
2021/06/12 10:09:27;;;;;;;3.60;3.40;;;30.40;92.80;;;;;;4993155;28;20222;-63
2021/06/12 10:11:53;;;;;;;5.23;3.80;;;30.30;92.40;;;;;;4993356;28;20202;-64
2021/06/12 10:14:19;;;;;;;4.33;3.60;;;30.40;92.20;;;;;;4993223;28;20449;-64
2021/06/12 10:16:47;;;;;;;3.20;3.00;;;30.20;92.90;;;;;;4993261;28;20423;-64
2021/06/12 10:19:16;;;;;;;8.17;3.97;;;30.60;92.50;;;;;;5009910;28;20233;-64
2021/06/12 10:21:42;;;;;;;4.00;3.70;;;30.30;92.90;;;;;;5010122;28;20817;-67
2021/06/12 10:24:08;;;;;;;4.80;4.30;;;30.40;92.00;;;;;;5011999;28;20438;-67
2021/06/12 10:26:35;;;;;;;6.90;4.03;;;30.70;92.30;;;;;;5012015;28;20242;-68
2021/06/12 10:29:01;;;;;;;4.10;3.70;;;30.80;90.80;;;;;;5011818;28;20418;-67
2021/06/12 10:31:27;;;;;;;8.83;5.67;;;30.40;90.70;;;;;;5010037;28;20448;-63
2021/06/12 10:33:56;;;;;;;7.40;4.43;;;30.50;91.50;;;;;;5011829;28;20450;-61
2021/06/12 10:36:26;;;;;;;13.77;4.67;;;31.10;90.50;;;;;;5011991;28;20426;-62
2021/06/12 10:38:54;;;;;;;3.97;3.77;;;32.00;88.70;;;;;;5011864;28;20922;-66
2021/06/12 10:41:26;;;;;;;3.90;3.70;;;32.90;85.90;;;;;;5010865;28;20538;-66
2021/06/12 10:43:54;;;;;;;12.30;3.90;;;32.90;81.20;;;;;;5011595;28;20449;-67
2021/06/12 10:46:28;;;;;;;3.70;3.50;;;32.90;80.70;;;;;;5011676;28;20422;-67
2021/06/12 10:48:59;;;;;;;10.20;4.27;;;32.80;81.30;;;;;;5011401;28;20501;-65
2021/06/12 10:51:25;;;;;;;8.80;4.30;;;33.10;80.10;;;;;;5011798;28;20425;-66
2021/06/12 10:54:09;;;;;;;3.47;3.17;;;32.70;79.30;;;;;;5011668;28;20452;-66
2021/06/12 10:56:37;;;;;;;4.10;3.90;;;32.40;77.90;;;;;;5010879;28;20576;-66
2021/06/12 10:59:04;;;;;;;3.70;3.50;;;32.70;80.00;;;;;;5011492;28;20461;-67
2021/06/12 11:01:30;;;;;;;7.77;7.17;;;33.60;77.20;;;;;;5011691;28;20489;-65
2021/06/12 11:06:42;;;;;;;6.00;5.50;;;34.90;75.10;;;;;;5006578;28;20488;-66
2021/06/12 11:09:14;;;;;;;4.50;4.30;;;35.40;71.60;;;;;;5007820;28;20953;-66
2021/06/12 11:11:43;;;;;;;4.60;4.30;;;35.20;70.40;;;;;;5002275;28;20430;-65
2021/06/12 11:14:24;;;;;;;5.17;4.77;;;34.00;69.60;;;;;;5002671;28;20442;-65
2021/06/12 11:17:08;;;;;;;5.13;4.70;;;34.10;71.50;;;;;;4999944;28;20513;-66
2021/06/12 11:19:34;;;;;;;4.30;4.10;;;34.80;68.40;;;;;;5002733;28;20455;-64
2021/06/12 11:22:26;;;;;;;3.63;3.43;;;35.30;67.60;;;;;;5001034;28;20549;-65
2021/06/12 11:24:55;;;;;;;4.13;3.83;;;34.70;65.90;;;;;;5002650;28;20431;-65
2021/06/12 11:27:28;;;;;;;4.30;4.00;;;33.70;68.60;;;;;;5001180;28;20425;-65
2021/06/12 11:30:19;;;;;;;4.10;3.70;;;33.70;68.80;;;;;;5000746;28;20423;-65
2021/06/12 11:32:58;;;;;;;4.57;4.17;;;33.60;66.90;;;;;;5001864;28;20418;-65
2021/06/12 11:35:44;;;;;;;4.30;4.00;;;34.20;66.20;;;;;;5000438;28;20438;-65
2021/06/12 11:38:14;;;;;;;4.40;4.10;;;34.40;66.90;;;;;;5009859;28;20413;-64
2021/06/12 11:40:58;;;;;;;4.07;3.73;;;34.40;64.30;;;;;;5009560;28;20461;-65
2021/06/12 11:43:44;;;;;;;3.37;3.17;;;34.20;64.30;;;;;;5011394;28;20428;-65
2021/06/12 11:46:14;;;;;;;4.57;4.30;;;34.10;64.10;;;;;;5011414;28;20425;-64
2021/06/12 11:48:45;;;;;;;3.50;3.30;;;33.80;65.40;;;;;;5009831;28;20425;-65
2021/06/12 11:51:21;;;;;;;7.83;7.23;;;33.80;63.50;;;;;;5010020;28;20422;-65
2021/06/12 11:54:18;;;;;;;4.47;4.07;;;34.20;62.80;;;;;;5011753;28;20511;-64
2021/06/12 11:56:54;;;;;;;18.73;4.87;;;35.30;60.90;;;;;;5009459;28;20469;-65
2021/06/12 11:59:23;;;;;;;4.13;3.20;;;35.80;58.40;;;;;;5014663;28;20417;-64
2021/06/12 12:01:57;;;;;;;3.83;3.50;;;36.00;55.60;;;;;;5014758;28;20827;-61
2021/06/12 12:04:23;;;;;;;3.70;3.10;;;36.00;55.70;;;;;;5012748;28;20837;-62
2021/06/12 12:06:51;;;;;;;3.50;3.20;;;36.30;54.60;;;;;;5014710;28;20433;-62
2021/06/12 12:09:31;;;;;;;6.10;3.43;;;37.20;54.90;;;;;;5014428;28;20433;-61
2021/06/12 12:12:03;;;;;;;4.20;3.80;;;38.10;55.00;;;;;;5013455;28;20425;-62
2021/06/12 12:14:37;;;;;;;5.13;3.83;;;38.50;54.20;;;;;;5014513;28;20485;-64
2021/06/12 12:17:05;;;;;;;3.93;3.63;;;39.20;52.40;;;;;;5014392;28;20786;-63
2021/06/12 12:19:30;;;;;;;3.90;3.70;;;40.00;51.30;;;;;;5014122;28;20492;-63
2021/06/12 12:21:59;;;;;;;3.50;3.20;;;40.70;50.30;;;;;;5014429;28;20493;-63
2021/06/12 12:24:32;;;;;;;4.00;2.80;;;40.70;50.10;;;;;;5012809;28;20195;-64
2021/06/12 12:27:09;;;;;;;4.00;3.17;;;40.80;49.70;;;;;;5014447;28;20513;-64
2021/06/12 12:29:40;;;;;;;2.90;2.70;;;40.30;50.10;;;;;;5014373;28;20425;-63
2021/06/12 12:32:06;;;;;;;4.03;3.73;;;40.80;49.00;;;;;;5014258;28;20452;-62
2021/06/12 12:34:36;;;;;;;3.40;3.00;;;40.40;47.80;;;;;;5014340;28;20533;-63
2021/06/12 12:37:02;;;;;;;2.90;2.60;;;40.60;48.80;;;;;;5014195;28;20425;-63
2021/06/12 12:39:38;;;;;;;2.80;2.60;;;40.70;48.00;;;;;;5014298;28;20484;-62
2021/06/12 12:42:04;;;;;;;3.33;3.13;;;40.50;48.10;;;;;;5013940;28;20491;-59